Terminal Aerodrome Forecast
Issued by NWS

Home | Current Version | Previous Version | Text Only | Print | Product List | Glossary On
Versions: 1 2 3 4 5 6 7 8 9 10 11 12 13 14 15 16 17 18 19 20 21 22 23 24 25 26 27 28 29 30
036
FTUS44 KOUN 311143
TAFPNC
TAF
KPNC 311143Z 3112/0112 27020G35KT 2SM TSRA BKN005 OVC020CB
     FM311400 35015KT 4SM -TSRA OVC025CB
     FM311600 06006KT P6SM OVC025
     FM010300 03006KT P6SM OVC035 PROB30 0103/0109 4SM -TSRA
      OVC025CB=

USA.gov is the U.S. government's official web portal to all federal, state and local government web resources and services.